sensor_id;sensor_type;location;lat;lon;timestamp;temperature;humidity
7447;DHT22;3765;47.962;7.952;2023-04-15T00:00:55;4.60;64.30
7447;DHT22;3765;47.962;7.952;2023-04-15T00:03:24;4.70;64.50
7447;DHT22;3765;47.962;7.952;2023-04-15T00:05:53;4.60;64.50
7447;DHT22;3765;47.962;7.952;2023-04-15T00:08:21;4.70;64.50
7447;DHT22;3765;47.962;7.952;2023-04-15T00:10:49;4.70;64.50
7447;DHT22;3765;47.962;7.952;2023-04-15T00:13:19;4.70;64.40
7447;DHT22;3765;47.962;7.952;2023-04-15T00:15:47;4.80;64.50
7447;DHT22;3765;47.962;7.952;2023-04-15T00:18:15;4.70;64.40
7447;DHT22;3765;47.962;7.952;2023-04-15T00:20:43;4.80;64.30
7447;DHT22;3765;47.962;7.952;2023-04-15T00:23:11;4.80;64.30
7447;DHT22;3765;47.962;7.952;2023-04-15T00:25:40;4.80;64.40
7447;DHT22;3765;47.962;7.952;2023-04-15T00:28:08;4.70;64.40
7447;DHT22;3765;47.962;7.952;2023-04-15T00:30:37;4.60;64.50
7447;DHT22;3765;47.962;7.952;2023-04-15T00:33:06;4.60;64.60
7447;DHT22;3765;47.962;7.952;2023-04-15T00:35:34;4.60;64.70
7447;DHT22;3765;47.962;7.952;2023-04-15T00:38:03;4.60;64.80
7447;DHT22;3765;47.962;7.952;2023-04-15T00:40:31;4.60;64.90
7447;DHT22;3765;47.962;7.952;2023-04-15T00:43:00;4.60;65.00
7447;DHT22;3765;47.962;7.952;2023-04-15T00:45:28;4.70;65.10
7447;DHT22;3765;47.962;7.952;2023-04-15T00:47:59;4.70;65.10
7447;DHT22;3765;47.962;7.952;2023-04-15T00:50:27;4.80;65.20
7447;DHT22;3765;47.962;7.952;2023-04-15T00:52:55;4.70;65.20
7447;DHT22;3765;47.962;7.952;2023-04-15T00:55:23;4.70;65.10
7447;DHT22;3765;47.962;7.952;2023-04-15T00:57:52;4.70;65.20
7447;DHT22;3765;47.962;7.952;2023-04-15T01:00:21;4.60;65.30
7447;DHT22;3765;47.962;7.952;2023-04-15T01:02:49;4.60;65.40
7447;DHT22;3765;47.962;7.952;2023-04-15T01:05:19;4.50;65.50
7447;DHT22;3765;47.962;7.952;2023-04-15T01:07:48;4.60;65.70
7447;DHT22;3765;47.962;7.952;2023-04-15T01:10:16;4.70;65.60
7447;DHT22;3765;47.962;7.952;2023-04-15T01:12:44;4.70;65.60
7447;DHT22;3765;47.962;7.952;2023-04-15T01:15:12;4.80;65.70
7447;DHT22;3765;47.962;7.952;2023-04-15T01:17:41;4.80;65.60
7447;DHT22;3765;47.962;7.952;2023-04-15T01:20:10;4.90;65.50
7447;DHT22;3765;47.962;7.952;2023-04-15T01:22:40;4.90;65.30
7447;DHT22;3765;47.962;7.952;2023-04-15T01:25:10;5.00;65.20
7447;DHT22;3765;47.962;7.952;2023-04-15T01:27:40;5.10;65.10
7447;DHT22;3765;47.962;7.952;2023-04-15T01:30:09;5.00;65.10
7447;DHT22;3765;47.962;7.952;2023-04-15T01:32:38;5.00;65.00
7447;DHT22;3765;47.962;7.952;2023-04-15T01:35:06;4.90;65.10
7447;DHT22;3765;47.962;7.952;2023-04-15T01:37:35;5.00;65.20
7447;DHT22;3765;47.962;7.952;2023-04-15T01:40:06;5.00;65.20
7447;DHT22;3765;47.962;7.952;2023-04-15T01:42:35;5.00;65.30
7447;DHT22;3765;47.962;7.952;2023-04-15T01:45:06;5.00;65.40
7447;DHT22;3765;47.962;7.952;2023-04-15T01:47:35;4.90;65.40
7447;DHT22;3765;47.962;7.952;2023-04-15T01:50:04;4.90;65.60
7447;DHT22;3765;47.962;7.952;2023-04-15T01:52:32;4.90;65.70
7447;DHT22;3765;47.962;7.952;2023-04-15T01:55:00;4.80;65.70
7447;DHT22;3765;47.962;7.952;2023-04-15T01:57:29;4.80;65.90
7447;DHT22;3765;47.962;7.952;2023-04-15T01:59:57;4.80;66.00
7447;DHT22;3765;47.962;7.952;2023-04-15T02:02:26;4.90;66.00
7447;DHT22;3765;47.962;7.952;2023-04-15T02:04:55;5.00;65.90
7447;DHT22;3765;47.962;7.952;2023-04-15T02:07:23;5.10;65.90
7447;DHT22;3765;47.962;7.952;2023-04-15T02:09:52;5.10;65.90
7447;DHT22;3765;47.962;7.952;2023-04-15T02:12:20;5.20;65.90
7447;DHT22;3765;47.962;7.952;2023-04-15T02:14:48;5.30;65.80
7447;DHT22;3765;47.962;7.952;2023-04-15T02:17:16;5.30;65.70
7447;DHT22;3765;47.962;7.952;2023-04-15T02:19:46;5.40;65.50
7447;DHT22;3765;47.962;7.952;2023-04-15T02:22:15;5.50;65.40
7447;DHT22;3765;47.962;7.952;2023-04-15T02:24:44;5.50;65.20
7447;DHT22;3765;47.962;7.952;2023-04-15T02:27:15;5.50;65.10
7447;DHT22;3765;47.962;7.952;2023-04-15T02:29:44;5.60;65.10
7447;DHT22;3765;47.962;7.952;2023-04-15T02:32:13;5.70;65.10
7447;DHT22;3765;47.962;7.952;2023-04-15T02:34:41;5.60;65.00
7447;DHT22;3765;47.962;7.952;2023-04-15T02:37:12;5.70;65.10
7447;DHT22;3765;47.962;7.952;2023-04-15T02:39:40;5.60;65.10
7447;DHT22;3765;47.962;7.952;2023-04-15T02:42:08;5.70;65.20
7447;DHT22;3765;47.962;7.952;2023-04-15T02:44:37;5.80;65.20
7447;DHT22;3765;47.962;7.952;2023-04-15T02:47:05;5.80;65.10
7447;DHT22;3765;47.962;7.952;2023-04-15T02:49:33;5.80;65.10
7447;DHT22;3765;47.962;7.952;2023-04-15T02:52:01;5.80;65.10
7447;DHT22;3765;47.962;7.952;2023-04-15T02:54:31;5.80;65.30
7447;DHT22;3765;47.962;7.952;2023-04-15T02:56:59;5.80;65.40
7447;DHT22;3765;47.962;7.952;2023-04-15T02:59:27;5.90;65.50
7447;DHT22;3765;47.962;7.952;2023-04-15T03:01:56;5.80;65.40
7447;DHT22;3765;47.962;7.952;2023-04-15T03:04:26;5.90;65.60
7447;DHT22;3765;47.962;7.952;2023-04-15T03:06:55;5.90;65.50
7447;DHT22;3765;47.962;7.952;2023-04-15T03:09:24;5.90;65.50
7447;DHT22;3765;47.962;7.952;2023-04-15T03:11:53;5.90;65.50
7447;DHT22;3765;47.962;7.952;2023-04-15T03:14:22;5.80;65.50
7447;DHT22;3765;47.962;7.952;2023-04-15T03:16:50;5.80;65.40
7447;DHT22;3765;47.962;7.952;2023-04-15T03:19:19;5.80;65.50
7447;DHT22;3765;47.962;7.952;2023-04-15T03:21:47;5.80;65.60
7447;DHT22;3765;47.962;7.952;2023-04-15T03:24:15;5.90;65.50
7447;DHT22;3765;47.962;7.952;2023-04-15T03:26:46;5.90;65.50
7447;DHT22;3765;47.962;7.952;2023-04-15T03:29:16;5.90;65.60
7447;DHT22;3765;47.962;7.952;2023-04-15T03:31:44;5.90;65.40
7447;DHT22;3765;47.962;7.952;2023-04-15T03:34:12;6.00;65.40
7447;DHT22;3765;47.962;7.952;2023-04-15T03:36:40;6.00;65.40
7447;DHT22;3765;47.962;7.952;2023-04-15T03:39:08;6.10;65.40
7447;DHT22;3765;47.962;7.952;2023-04-15T03:41:37;6.10;65.40
7447;DHT22;3765;47.962;7.952;2023-04-15T03:44:05;6.20;65.40
7447;DHT22;3765;47.962;7.952;2023-04-15T03:46:34;6.20;65.30
7447;DHT22;3765;47.962;7.952;2023-04-15T03:49:05;6.30;65.40
7447;DHT22;3765;47.962;7.952;2023-04-15T03:51:34;6.20;65.40
7447;DHT22;3765;47.962;7.952;2023-04-15T03:54:02;6.30;65.50
7447;DHT22;3765;47.962;7.952;2023-04-15T03:56:30;6.30;65.60
7447;DHT22;3765;47.962;7.952;2023-04-15T03:58:59;6.30;65.50
7447;DHT22;3765;47.962;7.952;2023-04-15T04:01:27;6.30;65.60
7447;DHT22;3765;47.962;7.952;2023-04-15T04:03:57;6.30;65.60
7447;DHT22;3765;47.962;7.952;2023-04-15T04:06:25;6.30;65.80
7447;DHT22;3765;47.962;7.952;2023-04-15T04:08:54;6.30;65.80
7447;DHT22;3765;47.962;7.952;2023-04-15T04:11:22;6.20;65.90
7447;DHT22;3765;47.962;7.952;2023-04-15T04:13:50;6.30;65.90
7447;DHT22;3765;47.962;7.952;2023-04-15T04:16:18;6.30;66.00
7447;DHT22;3765;47.962;7.952;2023-04-15T04:18:47;6.20;66.20
7447;DHT22;3765;47.962;7.952;2023-04-15T04:21:17;6.30;66.40
7447;DHT22;3765;47.962;7.952;2023-04-15T04:23:45;6.30;66.50
7447;DHT22;3765;47.962;7.952;2023-04-15T04:26:13;6.30;66.50
7447;DHT22;3765;47.962;7.952;2023-04-15T04:28:42;6.30;66.60
7447;DHT22;3765;47.962;7.952;2023-04-15T04:31:10;6.40;66.60
7447;DHT22;3765;47.962;7.952;2023-04-15T04:33:38;6.40;66.70
7447;DHT22;3765;47.962;7.952;2023-04-15T04:36:07;6.40;66.70
7447;DHT22;3765;47.962;7.952;2023-04-15T04:38:36;6.40;66.60
7447;DHT22;3765;47.962;7.952;2023-04-15T04:41:04;6.30;66.60
7447;DHT22;3765;47.962;7.952;2023-04-15T04:43:33;6.30;66.60
7447;DHT22;3765;47.962;7.952;2023-04-15T04:46:01;6.40;66.70
7447;DHT22;3765;47.962;7.952;2023-04-15T04:48:29;6.40;66.70
7447;DHT22;3765;47.962;7.952;2023-04-15T04:50:58;6.50;66.80
7447;DHT22;3765;47.962;7.952;2023-04-15T04:53:26;6.60;66.70
7447;DHT22;3765;47.962;7.952;2023-04-15T04:55:56;6.60;66.70
7447;DHT22;3765;47.962;7.952;2023-04-15T04:58:24;6.60;66.80
7447;DHT22;3765;47.962;7.952;2023-04-15T05:00:53;6.60;66.90
7447;DHT22;3765;47.962;7.952;2023-04-15T05:03:21;6.70;67.00
7447;DHT22;3765;47.962;7.952;2023-04-15T05:05:49;6.80;67.00
7447;DHT22;3765;47.962;7.952;2023-04-15T05:08:18;6.80;66.90
7447;DHT22;3765;47.962;7.952;2023-04-15T05:10:46;6.70;67.00
7447;DHT22;3765;47.962;7.952;2023-04-15T05:13:16;6.70;67.00
7447;DHT22;3765;47.962;7.952;2023-04-15T05:15:44;6.80;67.10
7447;DHT22;3765;47.962;7.952;2023-04-15T05:18:12;6.80;67.20
7447;DHT22;3765;47.962;7.952;2023-04-15T05:20:40;6.80;67.20
7447;DHT22;3765;47.962;7.952;2023-04-15T05:23:08;6.90;67.30
7447;DHT22;3765;47.962;7.952;2023-04-15T05:25:36;6.90;67.10
7447;DHT22;3765;47.962;7.952;2023-04-15T05:28:05;7.00;67.10
7447;DHT22;3765;47.962;7.952;2023-04-15T05:30:34;7.10;66.90
7447;DHT22;3765;47.962;7.952;2023-04-15T05:33:03;7.20;66.80
7447;DHT22;3765;47.962;7.952;2023-04-15T05:35:31;7.20;66.80
7447;DHT22;3765;47.962;7.952;2023-04-15T05:37:59;7.30;66.90
7447;DHT22;3765;47.962;7.952;2023-04-15T05:40:28;7.30;66.80
7447;DHT22;3765;47.962;7.952;2023-04-15T05:42:57;7.30;66.80
7447;DHT22;3765;47.962;7.952;2023-04-15T05:45:25;7.30;66.80
7447;DHT22;3765;47.962;7.952;2023-04-15T05:47:54;7.40;66.60
7447;DHT22;3765;47.962;7.952;2023-04-15T05:50:22;7.40;66.60
7447;DHT22;3765;47.962;7.952;2023-04-15T05:52:51;7.60;66.50
7447;DHT22;3765;47.962;7.952;2023-04-15T05:55:19;7.70;66.30
7447;DHT22;3765;47.962;7.952;2023-04-15T05:57:47;7.80;66.10
7447;DHT22;3765;47.962;7.952;2023-04-15T06:00:16;7.80;66.10
7447;DHT22;3765;47.962;7.952;2023-04-15T06:02:45;7.80;65.90
7447;DHT22;3765;47.962;7.952;2023-04-15T06:05:15;7.90;65.80
7447;DHT22;3765;47.962;7.952;2023-04-15T06:07:43;8.00;65.70
7447;DHT22;3765;47.962;7.952;2023-04-15T06:10:14;8.10;65.40
7447;DHT22;3765;47.962;7.952;2023-04-15T06:12:42;8.20;64.90
7447;DHT22;3765;47.962;7.952;2023-04-15T06:15:10;8.10;64.40
7447;DHT22;3765;47.962;7.952;2023-04-15T06:17:39;8.30;64.40
7447;DHT22;3765;47.962;7.952;2023-04-15T06:20:07;8.60;64.00
7447;DHT22;3765;47.962;7.952;2023-04-15T06:22:37;8.80;63.70
7447;DHT22;3765;47.962;7.952;2023-04-15T06:25:06;9.00;63.30
7447;DHT22;3765;47.962;7.952;2023-04-15T06:27:35;9.20;63.00
7447;DHT22;3765;47.962;7.952;2023-04-15T06:30:04;9.40;62.80
7447;DHT22;3765;47.962;7.952;2023-04-15T06:32:32;9.50;62.50
7447;DHT22;3765;47.962;7.952;2023-04-15T06:35:00;9.50;62.30
7447;DHT22;3765;47.962;7.952;2023-04-15T06:37:29;9.40;62.00
7447;DHT22;3765;47.962;7.952;2023-04-15T06:40:00;9.40;62.10
7447;DHT22;3765;47.962;7.952;2023-04-15T06:42:28;9.40;62.10
7447;DHT22;3765;47.962;7.952;2023-04-15T06:44:56;9.30;61.80
7447;DHT22;3765;47.962;7.952;2023-04-15T06:47:25;9.00;61.70
7447;DHT22;3765;47.962;7.952;2023-04-15T06:49:53;8.90;62.40
7447;DHT22;3765;47.962;7.952;2023-04-15T06:52:21;9.10;62.50
7447;DHT22;3765;47.962;7.952;2023-04-15T06:54:49;9.30;62.40
7447;DHT22;3765;47.962;7.952;2023-04-15T06:57:18;9.40;62.20
7447;DHT22;3765;47.962;7.952;2023-04-15T06:59:47;9.60;62.10
7447;DHT22;3765;47.962;7.952;2023-04-15T07:02:15;9.80;62.00
7447;DHT22;3765;47.962;7.952;2023-04-15T07:04:44;9.80;61.60
7447;DHT22;3765;47.962;7.952;2023-04-15T07:07:12;9.90;61.60
7447;DHT22;3765;47.962;7.952;2023-04-15T07:09:41;9.90;61.30
7447;DHT22;3765;47.962;7.952;2023-04-15T07:12:09;9.90;61.10
7447;DHT22;3765;47.962;7.952;2023-04-15T07:14:38;9.80;61.00
7447;DHT22;3765;47.962;7.952;2023-04-15T07:17:08;9.80;61.20
7447;DHT22;3765;47.962;7.952;2023-04-15T07:19:36;10.10;61.20
7447;DHT22;3765;47.962;7.952;2023-04-15T07:22:04;10.20;60.80
7447;DHT22;3765;47.962;7.952;2023-04-15T07:24:33;10.40;60.50
7447;DHT22;3765;47.962;7.952;2023-04-15T07:27:01;10.40;60.50
7447;DHT22;3765;47.962;7.952;2023-04-15T07:29:29;10.50;60.30
7447;DHT22;3765;47.962;7.952;2023-04-15T07:31:59;10.40;60.20
7447;DHT22;3765;47.962;7.952;2023-04-15T07:34:27;10.60;60.30
7447;DHT22;3765;47.962;7.952;2023-04-15T07:36:58;10.70;60.10
7447;DHT22;3765;47.962;7.952;2023-04-15T07:39:26;10.80;59.70
7447;DHT22;3765;47.962;7.952;2023-04-15T07:41:55;10.80;59.50
7447;DHT22;3765;47.962;7.952;2023-04-15T07:44:23;10.80;59.40
7447;DHT22;3765;47.962;7.952;2023-04-15T07:46:51;10.80;59.20
7447;DHT22;3765;47.962;7.952;2023-04-15T07:49:21;10.60;59.40
7447;DHT22;3765;47.962;7.952;2023-04-15T07:51:49;10.70;59.60
7447;DHT22;3765;47.962;7.952;2023-04-15T07:54:17;10.90;59.60
7447;DHT22;3765;47.962;7.952;2023-04-15T07:56:45;10.90;59.40
7447;DHT22;3765;47.962;7.952;2023-04-15T07:59:14;10.90;59.20
7447;DHT22;3765;47.962;7.952;2023-04-15T08:01:43;10.70;59.40
7447;DHT22;3765;47.962;7.952;2023-04-15T08:04:11;10.80;59.60
7447;DHT22;3765;47.962;7.952;2023-04-15T08:06:42;10.90;59.80
7447;DHT22;3765;47.962;7.952;2023-04-15T08:09:10;11.00;59.80
7447;DHT22;3765;47.962;7.952;2023-04-15T08:11:38;11.10;59.80
7447;DHT22;3765;47.962;7.952;2023-04-15T08:14:06;11.10;60.00
7447;DHT22;3765;47.962;7.952;2023-04-15T08:16:34;11.20;60.20
7447;DHT22;3765;47.962;7.952;2023-04-15T08:19:03;11.20;60.10
7447;DHT22;3765;47.962;7.952;2023-04-15T08:21:31;11.30;60.20
7447;DHT22;3765;47.962;7.952;2023-04-15T08:24:01;11.40;60.20
7447;DHT22;3765;47.962;7.952;2023-04-15T08:26:29;11.40;60.00
7447;DHT22;3765;47.962;7.952;2023-04-15T08:28:57;11.00;60.50
7447;DHT22;3765;47.962;7.952;2023-04-15T08:31:27;10.90;60.70
7447;DHT22;3765;47.962;7.952;2023-04-15T08:33:56;11.00;61.10
7447;DHT22;3765;47.962;7.952;2023-04-15T08:36:25;11.40;60.90
7447;DHT22;3765;47.962;7.952;2023-04-15T08:38:54;11.60;60.70
7447;DHT22;3765;47.962;7.952;2023-04-15T08:41:24;11.90;60.60
7447;DHT22;3765;47.962;7.952;2023-04-15T08:43:55;12.00;60.20
7447;DHT22;3765;47.962;7.952;2023-04-15T08:46:24;12.20;60.00
7447;DHT22;3765;47.962;7.952;2023-04-15T08:48:55;12.30;60.00
7447;DHT22;3765;47.962;7.952;2023-04-15T08:51:24;12.50;59.80
7447;DHT22;3765;47.962;7.952;2023-04-15T08:53:52;12.80;59.30
7447;DHT22;3765;47.962;7.952;2023-04-15T08:56:25;12.80;58.90
7447;DHT22;3765;47.962;7.952;2023-04-15T08:58:54;13.00;58.70
7447;DHT22;3765;47.962;7.952;2023-04-15T09:01:22;12.70;58.50
7447;DHT22;3765;47.962;7.952;2023-04-15T09:03:51;12.80;58.90
7447;DHT22;3765;47.962;7.952;2023-04-15T09:06:20;12.90;58.10
7447;DHT22;3765;47.962;7.952;2023-04-15T09:08:49;13.10;58.40
7447;DHT22;3765;47.962;7.952;2023-04-15T09:11:17;13.30;58.10
7447;DHT22;3765;47.962;7.952;2023-04-15T09:13:48;13.30;57.90
7447;DHT22;3765;47.962;7.952;2023-04-15T09:16:16;13.40;57.50
7447;DHT22;3765;47.962;7.952;2023-04-15T09:18:44;13.50;57.60
7447;DHT22;3765;47.962;7.952;2023-04-15T09:21:14;13.70;57.20
7447;DHT22;3765;47.962;7.952;2023-04-15T09:23:54;13.80;57.10
7447;DHT22;3765;47.962;7.952;2023-04-15T09:26:30;14.00;56.50
7447;DHT22;3765;47.962;7.952;2023-04-15T09:29:04;14.10;56.40
7447;DHT22;3765;47.962;7.952;2023-04-15T09:31:34;13.80;56.20
7447;DHT22;3765;47.962;7.952;2023-04-15T09:34:02;13.80;56.30
7447;DHT22;3765;47.962;7.952;2023-04-15T09:36:39;13.40;56.40
7447;DHT22;3765;47.962;7.952;2023-04-15T09:39:18;13.30;56.60
7447;DHT22;3765;47.962;7.952;2023-04-15T09:41:46;13.30;57.20
7447;DHT22;3765;47.962;7.952;2023-04-15T09:44:23;13.40;57.00
7447;DHT22;3765;47.962;7.952;2023-04-15T09:46:51;13.50;56.10
7447;DHT22;3765;47.962;7.952;2023-04-15T09:49:19;13.30;56.70
7447;DHT22;3765;47.962;7.952;2023-04-15T09:51:48;13.60;56.90
7447;DHT22;3765;47.962;7.952;2023-04-15T09:54:35;14.10;56.40
7447;DHT22;3765;47.962;7.952;2023-04-15T09:57:07;14.20;55.60
7447;DHT22;3765;47.962;7.952;2023-04-15T09:59:37;14.40;55.90
7447;DHT22;3765;47.962;7.952;2023-04-15T10:02:06;14.60;55.00
7447;DHT22;3765;47.962;7.952;2023-04-15T10:04:35;14.60;55.00
7447;DHT22;3765;47.962;7.952;2023-04-15T10:07:07;14.10;54.90
7447;DHT22;3765;47.962;7.952;2023-04-15T10:09:37;14.20;55.20
7447;DHT22;3765;47.962;7.952;2023-04-15T10:12:06;14.50;55.40
7447;DHT22;3765;47.962;7.952;2023-04-15T10:14:36;14.60;54.50
7447;DHT22;3765;47.962;7.952;2023-04-15T10:17:07;14.40;54.80
7447;DHT22;3765;47.962;7.952;2023-04-15T10:19:37;14.90;54.80
7447;DHT22;3765;47.962;7.952;2023-04-15T10:22:05;14.90;54.00
7447;DHT22;3765;47.962;7.952;2023-04-15T10:24:34;14.90;54.40
7447;DHT22;3765;47.962;7.952;2023-04-15T10:27:03;15.30;53.90
7447;DHT22;3765;47.962;7.952;2023-04-15T10:29:33;15.70;53.50
7447;DHT22;3765;47.962;7.952;2023-04-15T10:32:05;15.80;53.00
7447;DHT22;3765;47.962;7.952;2023-04-15T10:34:34;15.40;53.30
7447;DHT22;3765;47.962;7.952;2023-04-15T10:37:03;15.40;53.30
7447;DHT22;3765;47.962;7.952;2023-04-15T10:39:39;15.50;53.30
7447;DHT22;3765;47.962;7.952;2023-04-15T10:42:09;15.40;52.70
7447;DHT22;3765;47.962;7.952;2023-04-15T10:44:38;15.60;52.90
7447;DHT22;3765;47.962;7.952;2023-04-15T10:47:13;15.70;52.60
7447;DHT22;3765;47.962;7.952;2023-04-15T10:49:46;15.50;52.50
7447;DHT22;3765;47.962;7.952;2023-04-15T10:52:15;15.80;52.50
7447;DHT22;3765;47.962;7.952;2023-04-15T10:54:44;15.80;52.20
7447;DHT22;3765;47.962;7.952;2023-04-15T10:57:15;15.70;52.00
7447;DHT22;3765;47.962;7.952;2023-04-15T11:00:01;15.50;52.20
7447;DHT22;3765;47.962;7.952;2023-04-15T11:02:44;15.80;52.40
7447;DHT22;3765;47.962;7.952;2023-04-15T11:05:14;16.20;51.70
7447;DHT22;3765;47.962;7.952;2023-04-15T11:07:51;16.20;51.20
7447;DHT22;3765;47.962;7.952;2023-04-15T11:10:50;16.20;51.20
7447;DHT22;3765;47.962;7.952;2023-04-15T11:13:25;16.30;51.00
7447;DHT22;3765;47.962;7.952;2023-04-15T11:15:56;16.20;50.80
7447;DHT22;3765;47.962;7.952;2023-04-15T11:18:29;16.00;50.70
7447;DHT22;3765;47.962;7.952;2023-04-15T11:21:00;15.80;51.00
7447;DHT22;3765;47.962;7.952;2023-04-15T11:23:37;15.70;51.20
7447;DHT22;3765;47.962;7.952;2023-04-15T11:26:08;15.50;51.30
7447;DHT22;3765;47.962;7.952;2023-04-15T11:28:39;15.30;51.50
7447;DHT22;3765;47.962;7.952;2023-04-15T11:31:09;15.30;51.60
7447;DHT22;3765;47.962;7.952;2023-04-15T11:33:44;15.30;51.70
7447;DHT22;3765;47.962;7.952;2023-04-15T11:36:13;15.20;51.80
7447;DHT22;3765;47.962;7.952;2023-04-15T11:38:42;14.60;51.60
7447;DHT22;3765;47.962;7.952;2023-04-15T11:41:11;14.00;52.40
7447;DHT22;3765;47.962;7.952;2023-04-15T11:43:40;14.00;53.00
7447;DHT22;3765;47.962;7.952;2023-04-15T11:46:08;13.80;52.60
7447;DHT22;3765;47.962;7.952;2023-04-15T11:48:43;13.70;53.30
7447;DHT22;3765;47.962;7.952;2023-04-15T11:51:12;13.70;53.60
7447;DHT22;3765;47.962;7.952;2023-04-15T11:53:42;13.90;53.60
7447;DHT22;3765;47.962;7.952;2023-04-15T11:56:15;13.60;54.20
7447;DHT22;3765;47.962;7.952;2023-04-15T11:58:44;14.10;54.70
7447;DHT22;3765;47.962;7.952;2023-04-15T12:01:13;14.40;53.60
7447;DHT22;3765;47.962;7.952;2023-04-15T12:03:44;14.70;53.90
7447;DHT22;3765;47.962;7.952;2023-04-15T12:06:14;15.00;52.90
7447;DHT22;3765;47.962;7.952;2023-04-15T12:09:01;14.80;52.80
7447;DHT22;3765;47.962;7.952;2023-04-15T12:11:35;14.30;53.10
7447;DHT22;3765;47.962;7.952;2023-04-15T12:14:06;14.70;53.20
7447;DHT22;3765;47.962;7.952;2023-04-15T12:16:36;14.70;52.40
7447;DHT22;3765;47.962;7.952;2023-04-15T12:19:20;14.40;52.50
7447;DHT22;3765;47.962;7.952;2023-04-15T12:21:49;14.60;52.80
7447;DHT22;3765;47.962;7.952;2023-04-15T12:24:20;14.90;52.50
7447;DHT22;3765;47.962;7.952;2023-04-15T12:26:50;15.20;52.30
7447;DHT22;3765;47.962;7.952;2023-04-15T12:29:19;15.50;51.90
7447;DHT22;3765;47.962;7.952;2023-04-15T12:31:53;15.50;51.70
7447;DHT22;3765;47.962;7.952;2023-04-15T12:34:30;15.40;51.10
7447;DHT22;3765;47.962;7.952;2023-04-15T12:36:59;14.80;51.80
7447;DHT22;3765;47.962;7.952;2023-04-15T12:39:29;15.30;52.20
7447;DHT22;3765;47.962;7.952;2023-04-15T12:41:58;15.90;51.60
7447;DHT22;3765;47.962;7.952;2023-04-15T12:44:27;16.30;50.40
7447;DHT22;3765;47.962;7.952;2023-04-15T12:46:56;16.30;50.70
7447;DHT22;3765;47.962;7.952;2023-04-15T12:49:26;16.60;50.10
7447;DHT22;3765;47.962;7.952;2023-04-15T12:51:57;16.30;49.50
7447;DHT22;3765;47.962;7.952;2023-04-15T12:54:26;16.10;49.50
7447;DHT22;3765;47.962;7.952;2023-04-15T12:56:55;15.70;50.10
7447;DHT22;3765;47.962;7.952;2023-04-15T12:59:23;15.50;50.10
7447;DHT22;3765;47.962;7.952;2023-04-15T13:01:52;15.30;50.00
7447;DHT22;3765;47.962;7.952;2023-04-15T13:04:21;14.80;50.40
7447;DHT22;3765;47.962;7.952;2023-04-15T13:06:49;14.80;50.60
7447;DHT22;3765;47.962;7.952;2023-04-15T13:09:18;14.40;50.90
7447;DHT22;3765;47.962;7.952;2023-04-15T13:11:47;14.50;51.30
7447;DHT22;3765;47.962;7.952;2023-04-15T13:14:16;14.40;51.20
7447;DHT22;3765;47.962;7.952;2023-04-15T13:16:44;14.30;51.30
7447;DHT22;3765;47.962;7.952;2023-04-15T13:19:13;14.50;51.70
7447;DHT22;3765;47.962;7.952;2023-04-15T13:21:41;14.60;51.50
7447;DHT22;3765;47.962;7.952;2023-04-15T13:24:09;14.90;51.20
7447;DHT22;3765;47.962;7.952;2023-04-15T13:26:39;15.10;51.00
7447;DHT22;3765;47.962;7.952;2023-04-15T13:29:07;15.30;50.50
7447;DHT22;3765;47.962;7.952;2023-04-15T13:31:35;15.80;50.40
7447;DHT22;3765;47.962;7.952;2023-04-15T13:34:03;16.30;49.80
7447;DHT22;3765;47.962;7.952;2023-04-15T13:36:32;15.90;49.20
7447;DHT22;3765;47.962;7.952;2023-04-15T13:39:00;15.80;48.80
7447;DHT22;3765;47.962;7.952;2023-04-15T13:41:29;15.50;48.80
7447;DHT22;3765;47.962;7.952;2023-04-15T13:43:59;15.00;48.90
7447;DHT22;3765;47.962;7.952;2023-04-15T13:46:27;14.90;49.10
7447;DHT22;3765;47.962;7.952;2023-04-15T13:48:56;15.10;49.30
7447;DHT22;3765;47.962;7.952;2023-04-15T13:51:24;15.30;49.30
7447;DHT22;3765;47.962;7.952;2023-04-15T13:53:52;15.40;49.00
7447;DHT22;3765;47.962;7.952;2023-04-15T13:56:21;15.50;48.60
7447;DHT22;3765;47.962;7.952;2023-04-15T13:58:50;15.70;48.90
7447;DHT22;3765;47.962;7.952;2023-04-15T14:01:21;16.10;48.20
7447;DHT22;3765;47.962;7.952;2023-04-15T14:03:50;16.80;47.80
7447;DHT22;3765;47.962;7.952;2023-04-15T14:06:18;17.10;47.10
7447;DHT22;3765;47.962;7.952;2023-04-15T14:08:46;16.70;46.50
7447;DHT22;3765;47.962;7.952;2023-04-15T14:11:14;16.30;46.80
7447;DHT22;3765;47.962;7.952;2023-04-15T14:13:44;15.80;45.90
7447;DHT22;3765;47.962;7.952;2023-04-15T14:16:12;15.30;46.50
7447;DHT22;3765;47.962;7.952;2023-04-15T14:18:42;15.30;46.70
7447;DHT22;3765;47.962;7.952;2023-04-15T14:21:11;15.10;46.40
7447;DHT22;3765;47.962;7.952;2023-04-15T14:23:40;14.70;46.90
7447;DHT22;3765;47.962;7.952;2023-04-15T14:26:08;14.50;47.50
7447;DHT22;3765;47.962;7.952;2023-04-15T14:28:36;14.50;48.30
7447;DHT22;3765;47.962;7.952;2023-04-15T14:31:05;14.10;49.00
7447;DHT22;3765;47.962;7.952;2023-04-15T14:33:33;13.80;49.90
7447;DHT22;3765;47.962;7.952;2023-04-15T14:36:03;13.90;50.50
7447;DHT22;3765;47.962;7.952;2023-04-15T14:38:33;14.30;50.80
7447;DHT22;3765;47.962;7.952;2023-04-15T14:41:04;14.60;51.10
7447;DHT22;3765;47.962;7.952;2023-04-15T14:43:32;14.90;51.00
7447;DHT22;3765;47.962;7.952;2023-04-15T14:46:01;15.30;50.90
7447;DHT22;3765;47.962;7.952;2023-04-15T14:48:30;15.30;50.60
7447;DHT22;3765;47.962;7.952;2023-04-15T14:50:58;15.00;50.80
7447;DHT22;3765;47.962;7.952;2023-04-15T14:53:28;15.70;50.90
7447;DHT22;3765;47.962;7.952;2023-04-15T14:55:56;16.30;50.00
7447;DHT22;3765;47.962;7.952;2023-04-15T14:58:24;17.20;49.40
7447;DHT22;3765;47.962;7.952;2023-04-15T15:00:52;18.00;48.50
7447;DHT22;3765;47.962;7.952;2023-04-15T15:03:20;18.90;47.10
7447;DHT22;3765;47.962;7.952;2023-04-15T15:16:23;19.60;46.00
7447;DHT22;3765;47.962;7.952;2023-04-15T15:18:51;20.30;42.60
7447;DHT22;3765;47.962;7.952;2023-04-15T15:21:19;21.10;42.10
7447;DHT22;3765;47.962;7.952;2023-04-15T15:23:47;20.80;41.30
7447;DHT22;3765;47.962;7.952;2023-04-15T15:26:16;21.20;41.00
7447;DHT22;3765;47.962;7.952;2023-04-15T15:28:45;20.70;40.10
7447;DHT22;3765;47.962;7.952;2023-04-15T15:31:13;19.30;40.50
7447;DHT22;3765;47.962;7.952;2023-04-15T15:33:43;18.50;40.80
7447;DHT22;3765;47.962;7.952;2023-04-15T15:36:11;18.30;41.50
7447;DHT22;3765;47.962;7.952;2023-04-15T15:38:39;19.50;41.30
7447;DHT22;3765;47.962;7.952;2023-04-15T15:41:08;20.50;40.30
7447;DHT22;3765;47.962;7.952;2023-04-15T15:43:36;20.60;40.10
7447;DHT22;3765;47.962;7.952;2023-04-15T15:46:04;21.10;39.00
7447;DHT22;3765;47.962;7.952;2023-04-15T15:48:32;19.30;39.50
7447;DHT22;3765;47.962;7.952;2023-04-15T15:51:02;18.20;39.80
7447;DHT22;3765;47.962;7.952;2023-04-15T15:53:32;17.40;40.60
7447;DHT22;3765;47.962;7.952;2023-04-15T15:56:04;16.80;41.70
7447;DHT22;3765;47.962;7.952;2023-04-15T15:58:32;16.60;42.50
7447;DHT22;3765;47.962;7.952;2023-04-15T16:01:01;16.70;42.50
7447;DHT22;3765;47.962;7.952;2023-04-15T16:03:29;18.20;44.00
7447;DHT22;3765;47.962;7.952;2023-04-15T16:06:02;19.50;40.40
7447;DHT22;3765;47.962;7.952;2023-04-15T16:08:32;18.20;41.10
7447;DHT22;3765;47.962;7.952;2023-04-15T16:11:08;16.80;42.00
7447;DHT22;3765;47.962;7.952;2023-04-15T16:13:39;16.40;42.30
7447;DHT22;3765;47.962;7.952;2023-04-15T16:16:07;16.50;42.50
7447;DHT22;3765;47.962;7.952;2023-04-15T16:18:35;16.60;42.10
7447;DHT22;3765;47.962;7.952;2023-04-15T16:21:05;16.10;42.50
7447;DHT22;3765;47.962;7.952;2023-04-15T16:23:34;16.10;43.00
7447;DHT22;3765;47.962;7.952;2023-04-15T16:26:03;16.20;42.90
7447;DHT22;3765;47.962;7.952;2023-04-15T16:28:32;16.70;43.20
7447;DHT22;3765;47.962;7.952;2023-04-15T16:31:00;17.10;42.60
7447;DHT22;3765;47.962;7.952;2023-04-15T16:33:28;17.10;42.30